sensor_id;sensor_type;location;lat;lon;timestamp;pressure;altitude;pressure_sealevel;temperature;humidity
48204;BME280;33994;50.998;5.864;2024-02-26T00:00:16;99199.53;;;6.15;88.50
48204;BME280;33994;50.998;5.864;2024-02-26T00:03:21;99195.25;;;6.14;88.98
48204;BME280;33994;50.998;5.864;2024-02-26T00:06:24;99194.41;;;6.12;89.11
48204;BME280;33994;50.998;5.864;2024-02-26T00:09:27;99193.59;;;6.09;89.59
48204;BME280;33994;50.998;5.864;2024-02-26T00:12:30;99200.69;;;6.01;90.36
48204;BME280;33994;50.998;5.864;2024-02-26T00:15:33;99192.09;;;5.99;90.76
48204;BME280;33994;50.998;5.864;2024-02-26T00:18:38;99186.03;;;6.00;91.44
48204;BME280;33994;50.998;5.864;2024-02-26T00:21:41;99189.53;;;5.98;91.63
48204;BME280;33994;50.998;5.864;2024-02-26T00:24:44;99187.97;;;5.91;91.71
48204;BME280;33994;50.998;5.864;2024-02-26T00:27:47;99194.13;;;5.85;92.47
48204;BME280;33994;50.998;5.864;2024-02-26T00:30:50;99189.00;;;5.82;93.30
48204;BME280;33994;50.998;5.864;2024-02-26T00:33:55;99181.22;;;5.83;93.63
48204;BME280;33994;50.998;5.864;2024-02-26T00:36:58;99182.13;;;5.81;93.89
48204;BME280;33994;50.998;5.864;2024-02-26T00:40:01;99183.06;;;5.77;94.56
48204;BME280;33994;50.998;5.864;2024-02-26T00:43:05;99186.47;;;5.79;94.74
48204;BME280;33994;50.998;5.864;2024-02-26T00:46:08;99190.81;;;5.78;94.97
48204;BME280;33994;50.998;5.864;2024-02-26T00:49:13;99179.66;;;5.75;95.46
48204;BME280;33994;50.998;5.864;2024-02-26T00:52:16;99175.34;;;5.74;95.89
48204;BME280;33994;50.998;5.864;2024-02-26T00:55:19;99166.78;;;5.70;96.34
48204;BME280;33994;50.998;5.864;2024-02-26T00:58:22;99174.63;;;5.69;96.90
48204;BME280;33994;50.998;5.864;2024-02-26T01:01:25;99175.53;;;5.66;97.42
48204;BME280;33994;50.998;5.864;2024-02-26T01:04:30;99175.56;;;5.65;97.69
48204;BME280;33994;50.998;5.864;2024-02-26T01:07:33;99172.97;;;5.63;98.29
48204;BME280;33994;50.998;5.864;2024-02-26T01:10:36;99176.47;;;5.62;98.48
48204;BME280;33994;50.998;5.864;2024-02-26T01:13:39;99167.84;;;5.62;99.23
48204;BME280;33994;50.998;5.864;2024-02-26T01:16:43;99170.44;;;5.62;99.48
48204;BME280;33994;50.998;5.864;2024-02-26T01:19:47;99175.63;;;5.60;99.48
48204;BME280;33994;50.998;5.864;2024-02-26T01:22:50;99179.06;;;5.62;99.54
48204;BME280;33994;50.998;5.864;2024-02-26T01:25:54;99188.59;;;5.62;99.49
48204;BME280;33994;50.998;5.864;2024-02-26T01:28:57;99187.69;;;5.64;100.00
48204;BME280;33994;50.998;5.864;2024-02-26T01:32:00;99181.59;;;5.65;99.98
48204;BME280;33994;50.998;5.864;2024-02-26T01:35:05;99175.63;;;5.60;100.00
48204;BME280;33994;50.998;5.864;2024-02-26T01:38:08;99171.44;;;5.54;100.00
48204;BME280;33994;50.998;5.864;2024-02-26T01:41:13;99166.31;;;5.51;100.00
48204;BME280;33994;50.998;5.864;2024-02-26T01:44:16;99162.91;;;5.49;100.00
48204;BME280;33994;50.998;5.864;2024-02-26T01:47:19;99168.13;;;5.48;100.00
48204;BME280;33994;50.998;5.864;2024-02-26T01:50:24;99172.50;;;5.46;100.00
48204;BME280;33994;50.998;5.864;2024-02-26T01:53:27;99164.72;;;5.44;100.00
48204;BME280;33994;50.998;5.864;2024-02-26T01:56:30;99171.59;;;5.47;100.00
48204;BME280;33994;50.998;5.864;2024-02-26T01:59:34;99167.41;;;5.41;100.00
48204;BME280;33994;50.998;5.864;2024-02-26T02:02:38;99164.81;;;5.41;100.00
48204;BME280;33994;50.998;5.864;2024-02-26T02:05:44;99175.19;;;5.41;100.00
48204;BME280;33994;50.998;5.864;2024-02-26T02:08:48;99165.69;;;5.40;100.00
48204;BME280;33994;50.998;5.864;2024-02-26T02:11:52;99157.91;;;5.40;100.00
48204;BME280;33994;50.998;5.864;2024-02-26T02:14:55;99164.72;;;5.44;100.00
48204;BME280;33994;50.998;5.864;2024-02-26T02:17:58;99158.78;;;5.39;100.00
48204;BME280;33994;50.998;5.864;2024-02-26T02:21:03;99152.91;;;5.31;100.00
48204;BME280;33994;50.998;5.864;2024-02-26T02:24:07;99152.91;;;5.31;100.00
48204;BME280;33994;50.998;5.864;2024-02-26T02:27:10;99152.97;;;5.28;100.00
48204;BME280;33994;50.998;5.864;2024-02-26T02:30:13;99166.00;;;5.25;100.00
48204;BME280;33994;50.998;5.864;2024-02-26T02:33:16;99167.81;;;5.20;100.00
48204;BME280;33994;50.998;5.864;2024-02-26T02:36:21;99173.75;;;5.25;100.00
48204;BME280;33994;50.998;5.864;2024-02-26T02:39:24;99167.69;;;5.27;100.00
48204;BME280;33994;50.998;5.864;2024-02-26T02:42:27;99175.50;;;5.26;100.00
48204;BME280;33994;50.998;5.864;2024-02-26T02:45:30;99166.88;;;5.24;100.00
48204;BME280;33994;50.998;5.864;2024-02-26T02:48:34;99165.22;;;5.20;100.00
48204;BME280;33994;50.998;5.864;2024-02-26T02:51:38;99172.16;;;5.19;100.00
48204;BME280;33994;50.998;5.864;2024-02-26T02:54:41;99162.69;;;5.17;100.00
48204;BME280;33994;50.998;5.864;2024-02-26T02:57:45;99180.88;;;5.14;100.00
48204;BME280;33994;50.998;5.864;2024-02-26T03:00:48;99169.72;;;5.12;100.00
48204;BME280;33994;50.998;5.864;2024-02-26T03:03:51;99159.34;;;5.12;100.00
48204;BME280;33994;50.998;5.864;2024-02-26T03:06:56;99156.75;;;5.12;100.00
48204;BME280;33994;50.998;5.864;2024-02-26T03:09:59;99163.75;;;5.06;100.00
48204;BME280;33994;50.998;5.864;2024-02-26T03:13:02;99171.50;;;5.08;100.00
48204;BME280;33994;50.998;5.864;2024-02-26T03:16:06;99168.91;;;5.08;100.00
48204;BME280;33994;50.998;5.864;2024-02-26T03:19:09;99162.03;;;5.05;100.00
48204;BME280;33994;50.998;5.864;2024-02-26T03:22:14;99166.34;;;5.06;100.00
48204;BME280;33994;50.998;5.864;2024-02-26T03:25:17;99172.44;;;5.04;100.00
48204;BME280;33994;50.998;5.864;2024-02-26T03:28:20;99162.19;;;4.99;100.00
48204;BME280;33994;50.998;5.864;2024-02-26T03:31:23;99164.72;;;5.01;100.00
48204;BME280;33994;50.998;5.864;2024-02-26T03:34:26;99173.34;;;5.03;100.00
48204;BME280;33994;50.998;5.864;2024-02-26T03:37:31;99161.28;;;5.00;100.00
48204;BME280;33994;50.998;5.864;2024-02-26T03:40:34;99174.19;;;5.02;100.00
48204;BME280;33994;50.998;5.864;2024-02-26T03:43:37;99174.28;;;4.97;100.00
48204;BME280;33994;50.998;5.864;2024-02-26T03:46:40;99170.75;;;5.01;100.00
48204;BME280;33994;50.998;5.864;2024-02-26T03:49:43;99168.97;;;5.05;100.00
48204;BME280;33994;50.998;5.864;2024-02-26T03:52:48;99160.31;;;5.06;100.00
48204;BME280;33994;50.998;5.864;2024-02-26T03:55:51;99162.94;;;5.04;100.00
48204;BME280;33994;50.998;5.864;2024-02-26T03:58:54;99145.69;;;5.03;100.00
48204;BME280;33994;50.998;5.864;2024-02-26T04:01:57;99157.84;;;4.98;100.00
48204;BME280;33994;50.998;5.864;2024-02-26T04:05:00;99160.41;;;5.01;100.00
48204;BME280;33994;50.998;5.864;2024-02-26T04:08:06;99158.66;;;5.03;100.00
48204;BME280;33994;50.998;5.864;2024-02-26T04:11:09;99154.31;;;5.04;100.00
48204;BME280;33994;50.998;5.864;2024-02-26T04:14:12;99162.91;;;5.06;100.00
48204;BME280;33994;50.998;5.864;2024-02-26T04:17:15;99168.88;;;5.09;100.00
48204;BME280;33994;50.998;5.864;2024-02-26T04:20:19;99172.34;;;5.08;100.00
48204;BME280;33994;50.998;5.864;2024-02-26T04:23:23;99171.53;;;5.06;100.00
48204;BME280;33994;50.998;5.864;2024-02-26T04:26:26;99182.72;;;5.08;100.00
48204;BME280;33994;50.998;5.864;2024-02-26T04:29:29;99180.13;;;5.08;100.00
48204;BME280;33994;50.998;5.864;2024-02-26T04:32:33;99176.69;;;5.06;100.00
48204;BME280;33994;50.998;5.864;2024-02-26T04:35:36;99182.81;;;5.02;100.00
48204;BME280;33994;50.998;5.864;2024-02-26T04:38:40;99182.91;;;4.99;100.00
48204;BME280;33994;50.998;5.864;2024-02-26T04:41:43;99187.19;;;5.00;100.00
48204;BME280;33994;50.998;5.864;2024-02-26T04:44:47;99185.56;;;4.96;100.00
48204;BME280;33994;50.998;5.864;2024-02-26T04:47:50;99195.03;;;4.97;100.00
48204;BME280;33994;50.998;5.864;2024-02-26T04:50:53;99186.50;;;4.92;100.00
48204;BME280;33994;50.998;5.864;2024-02-26T04:53:57;99195.09;;;4.91;100.00
48204;BME280;33994;50.998;5.864;2024-02-26T04:57:01;99191.66;;;4.91;100.00
48204;BME280;33994;50.998;5.864;2024-02-26T05:00:04;99211.53;;;4.90;100.00
48204;BME280;33994;50.998;5.864;2024-02-26T05:03:08;99193.50;;;4.84;100.00
48204;BME280;33994;50.998;5.864;2024-02-26T05:06:11;99202.16;;;4.83;100.00
48204;BME280;33994;50.998;5.864;2024-02-26T05:09:16;99209.09;;;4.81;100.00
48204;BME280;33994;50.998;5.864;2024-02-26T05:12:19;99198.63;;;4.87;100.00
48204;BME280;33994;50.998;5.864;2024-02-26T05:15:22;99217.63;;;4.86;100.00
48204;BME280;33994;50.998;5.864;2024-02-26T05:18:25;99210.72;;;4.88;100.00
48204;BME280;33994;50.998;5.864;2024-02-26T05:21:28;99228.75;;;4.91;100.00
48204;BME280;33994;50.998;5.864;2024-02-26T05:24:33;99234.81;;;4.92;100.00
48204;BME280;33994;50.998;5.864;2024-02-26T05:27:36;99235.72;;;4.89;100.00
48204;BME280;33994;50.998;5.864;2024-02-26T05:30:39;99233.22;;;4.83;100.00
48204;BME280;33994;50.998;5.864;2024-02-26T05:33:43;99233.22;;;4.83;100.00
48204;BME280;33994;50.998;5.864;2024-02-26T05:36:46;99228.03;;;4.84;100.00
48204;BME280;33994;50.998;5.864;2024-02-26T05:39:51;99234.16;;;4.79;100.00
48204;BME280;33994;50.998;5.864;2024-02-26T05:42:55;99237.69;;;4.76;100.00
48204;BME280;33994;50.998;5.864;2024-02-26T05:45:58;99229.97;;;4.72;100.00
48204;BME280;33994;50.998;5.864;2024-02-26T05:49:01;99241.22;;;4.71;100.00
48204;BME280;33994;50.998;5.864;2024-02-26T05:52:05;99240.31;;;4.72;100.00
48204;BME280;33994;50.998;5.864;2024-02-26T05:55:09;99256.78;;;4.69;100.00
48204;BME280;33994;50.998;5.864;2024-02-26T05:58:12;99259.41;;;4.65;100.00
48204;BME280;33994;50.998;5.864;2024-02-26T06:01:16;99266.38;;;4.62;100.00
48204;BME280;33994;50.998;5.864;2024-02-26T06:04:19;99278.44;;;4.65;100.00
48204;BME280;33994;50.998;5.864;2024-02-26T06:07:23;99275.03;;;4.61;100.00
48204;BME280;33994;50.998;5.864;2024-02-26T06:10:27;99280.22;;;4.60;100.00
48204;BME280;33994;50.998;5.864;2024-02-26T06:13:30;99281.09;;;4.59;100.00
48204;BME280;33994;50.998;5.864;2024-02-26T06:16:34;99281.16;;;4.56;100.00
48204;BME280;33994;50.998;5.864;2024-02-26T06:19:37;99291.53;;;4.53;100.00
48204;BME280;33994;50.998;5.864;2024-02-26T06:22:40;99283.84;;;4.48;100.00
48204;BME280;33994;50.998;5.864;2024-02-26T06:25:45;99293.44;;;4.42;100.00
48204;BME280;33994;50.998;5.864;2024-02-26T06:28:48;99285.72;;;4.37;100.00
48204;BME280;33994;50.998;5.864;2024-02-26T06:31:51;99290.91;;;4.38;100.00
48204;BME280;33994;50.998;5.864;2024-02-26T06:34:54;99296.06;;;4.40;100.00
48204;BME280;33994;50.998;5.864;2024-02-26T06:37:57;99309.00;;;4.40;100.00
48204;BME280;33994;50.998;5.864;2024-02-26T06:41:02;99309.06;;;4.35;100.00
48204;BME280;33994;50.998;5.864;2024-02-26T06:44:05;99305.59;;;4.36;100.00
48204;BME280;33994;50.998;5.864;2024-02-26T06:47:08;99317.66;;;4.39;100.00
48204;BME280;33994;50.998;5.864;2024-02-26T06:50:11;99317.69;;;4.36;100.00
48204;BME280;33994;50.998;5.864;2024-02-26T06:53:15;99318.53;;;4.38;100.00
48204;BME280;33994;50.998;5.864;2024-02-26T06:56:20;99322.81;;;4.39;100.00
48204;BME280;33994;50.998;5.864;2024-02-26T06:59:23;99333.19;;;4.39;100.00
48204;BME280;33994;50.998;5.864;2024-02-26T07:02:26;99320.25;;;4.37;100.00
48204;BME280;33994;50.998;5.864;2024-02-26T07:05:29;99334.03;;;4.40;100.00
48204;BME280;33994;50.998;5.864;2024-02-26T07:08:32;99338.31;;;4.41;100.00
48204;BME280;33994;50.998;5.864;2024-02-26T07:11:37;99333.16;;;4.41;100.00
48204;BME280;33994;50.998;5.864;2024-02-26T07:14:40;99335.72;;;4.42;100.00
48204;BME280;33994;50.998;5.864;2024-02-26T07:17:44;99358.97;;;4.45;100.00
48204;BME280;33994;50.998;5.864;2024-02-26T07:20:47;99351.19;;;4.47;100.00
48204;BME280;33994;50.998;5.864;2024-02-26T07:23:50;99351.16;;;4.48;100.00
48204;BME280;33994;50.998;5.864;2024-02-26T07:26:54;99358.94;;;4.50;100.00
48204;BME280;33994;50.998;5.864;2024-02-26T07:29:58;99358.00;;;4.52;100.00
48204;BME280;33994;50.998;5.864;2024-02-26T07:33:01;99364.97;;;4.50;100.00
48204;BME280;33994;50.998;5.864;2024-02-26T07:36:04;99365.81;;;4.49;100.00
48204;BME280;33994;50.998;5.864;2024-02-26T07:39:08;99365.88;;;4.45;100.00
48204;BME280;33994;50.998;5.864;2024-02-26T07:42:12;99372.00;;;4.39;100.00
48204;BME280;33994;50.998;5.864;2024-02-26T07:45:15;99380.63;;;4.40;100.00
48204;BME280;33994;50.998;5.864;2024-02-26T07:48:18;99384.03;;;4.43;100.00
48204;BME280;33994;50.998;5.864;2024-02-26T07:51:22;99388.41;;;4.38;100.00
48204;BME280;33994;50.998;5.864;2024-02-26T07:54:25;99390.97;;;4.40;100.00
48204;BME280;33994;50.998;5.864;2024-02-26T07:57:30;99399.59;;;4.40;100.00
48204;BME280;33994;50.998;5.864;2024-02-26T08:00:33;99398.72;;;4.43;100.00
48204;BME280;33994;50.998;5.864;2024-02-26T08:03:37;99397.88;;;4.42;100.00
48204;BME280;33994;50.998;5.864;2024-02-26T08:06:40;99395.28;;;4.41;100.00
48204;BME280;33994;50.998;5.864;2024-02-26T08:09:43;99402.19;;;4.40;100.00
48204;BME280;33994;50.998;5.864;2024-02-26T08:12:48;99411.66;;;4.41;100.00
48204;BME280;33994;50.998;5.864;2024-02-26T08:15:51;99418.53;;;4.44;100.00
48204;BME280;33994;50.998;5.864;2024-02-26T08:18:55;99423.75;;;4.42;100.00
48204;BME280;33994;50.998;5.864;2024-02-26T08:21:58;99423.69;;;4.45;100.00
48204;BME280;33994;50.998;5.864;2024-02-26T08:25:01;99434.94;;;4.46;100.00
48204;BME280;33994;50.998;5.864;2024-02-26T08:28:06;99433.16;;;4.48;100.00
48204;BME280;33994;50.998;5.864;2024-02-26T08:31:10;99437.41;;;4.52;100.00
48204;BME280;33994;50.998;5.864;2024-02-26T08:34:13;99441.72;;;4.53;100.00
48204;BME280;33994;50.998;5.864;2024-02-26T08:37:16;99437.41;;;4.53;100.00
48204;BME280;33994;50.998;5.864;2024-02-26T08:40:19;99433.97;;;4.51;100.00
48204;BME280;33994;50.998;5.864;2024-02-26T08:43:24;99435.72;;;4.49;100.00
48204;BME280;33994;50.998;5.864;2024-02-26T08:46:27;99448.66;;;4.49;100.00
48204;BME280;33994;50.998;5.864;2024-02-26T08:49:30;99453.81;;;4.52;100.00
48204;BME280;33994;50.998;5.864;2024-02-26T08:52:33;99457.28;;;4.51;100.00
48204;BME280;33994;50.998;5.864;2024-02-26T08:55:36;99454.66;;;4.54;100.00
48204;BME280;33994;50.998;5.864;2024-02-26T08:58:41;99454.63;;;4.57;100.00
48204;BME280;33994;50.998;5.864;2024-02-26T09:01:44;99460.66;;;4.56;100.00
48204;BME280;33994;50.998;5.864;2024-02-26T09:04:47;99464.97;;;4.59;100.00
48204;BME280;33994;50.998;5.864;2024-02-26T09:07:50;99467.50;;;4.62;100.00
48204;BME280;33994;50.998;5.864;2024-02-26T09:10:54;99483.88;;;4.66;100.00
48204;BME280;33994;50.998;5.864;2024-02-26T09:13:58;99485.53;;;4.70;100.00
48204;BME280;33994;50.998;5.864;2024-02-26T09:17:01;99490.72;;;4.70;100.00
48204;BME280;33994;50.998;5.864;2024-02-26T09:20:05;99493.31;;;4.70;100.00
48204;BME280;33994;50.998;5.864;2024-02-26T09:23:09;99491.66;;;4.64;100.00
48204;BME280;33994;50.998;5.864;2024-02-26T09:26:12;99498.63;;;4.59;100.00
48204;BME280;33994;50.998;5.864;2024-02-26T09:29:17;99511.53;;;4.60;100.00
48204;BME280;33994;50.998;5.864;2024-02-26T09:32:20;99506.34;;;4.60;100.00
48204;BME280;33994;50.998;5.864;2024-02-26T09:35:23;99511.53;;;4.60;100.00
48204;BME280;33994;50.998;5.864;2024-02-26T09:38:26;99518.47;;;4.58;100.00
48204;BME280;33994;50.998;5.864;2024-02-26T09:41:30;99521.03;;;4.61;100.00
48204;BME280;33994;50.998;5.864;2024-02-26T09:44:35;99529.66;;;4.62;100.00
48204;BME280;33994;50.998;5.864;2024-02-26T09:47:39;99532.22;;;4.63;100.00
48204;BME280;33994;50.998;5.864;2024-02-26T09:50:43;99528.72;;;4.68;100.00
48204;BME280;33994;50.998;5.864;2024-02-26T09:53:46;99541.69;;;4.69;100.00
48204;BME280;33994;50.998;5.864;2024-02-26T09:56:51;99540.78;;;4.70;100.00
48204;BME280;33994;50.998;5.864;2024-02-26T09:59:59;99551.16;;;4.70;100.00
48204;BME280;33994;50.998;5.864;2024-02-26T10:03:03;99545.94;;;4.72;100.00
48204;BME280;33994;50.998;5.864;2024-02-26T10:06:07;99550.28;;;4.71;100.00
48204;BME280;33994;50.998;5.864;2024-02-26T10:09:10;99557.16;;;4.74;100.00
48204;BME280;33994;50.998;5.864;2024-02-26T10:12:14;99564.06;;;4.72;100.00
48204;BME280;33994;50.998;5.864;2024-02-26T10:15:20;99568.44;;;4.70;100.00
48204;BME280;33994;50.998;5.864;2024-02-26T10:18:23;99565.84;;;4.68;100.00
48204;BME280;33994;50.998;5.864;2024-02-26T10:21:26;99573.59;;;4.70;100.00
48204;BME280;33994;50.998;5.864;2024-02-26T10:24:30;99580.53;;;4.68;100.00
48204;BME280;33994;50.998;5.864;2024-02-26T10:27:33;99577.09;;;4.66;100.00
48204;BME280;33994;50.998;5.864;2024-02-26T10:30:38;99588.28;;;4.71;100.00
48204;BME280;33994;50.998;5.864;2024-02-26T10:33:43;99583.91;;;4.74;100.00
48204;BME280;33994;50.998;5.864;2024-02-26T10:36:46;99584.78;;;4.76;100.00
48204;BME280;33994;50.998;5.864;2024-02-26T10:39:49;99597.63;;;4.84;100.00
48204;BME280;33994;50.998;5.864;2024-02-26T10:42:53;99597.59;;;4.85;100.00
48204;BME280;33994;50.998;5.864;2024-02-26T10:45:57;99607.06;;;4.90;100.00
48204;BME280;33994;50.998;5.864;2024-02-26T10:49:01;99605.28;;;4.99;100.00
48204;BME280;33994;50.998;5.864;2024-02-26T10:52:05;99617.22;;;5.09;100.00
48204;BME280;33994;50.998;5.864;2024-02-26T10:55:15;99619.81;;;5.09;100.00
48204;BME280;33994;50.998;5.864;2024-02-26T10:58:19;99629.22;;;5.17;100.00
48204;BME280;33994;50.998;5.864;2024-02-26T11:01:25;99629.28;;;5.12;100.00
48204;BME280;33994;50.998;5.864;2024-02-26T11:04:30;99630.25;;;5.05;100.00
48204;BME280;33994;50.998;5.864;2024-02-26T11:07:34;99644.97;;;5.03;100.00
48204;BME280;33994;50.998;5.864;2024-02-26T11:10:38;99640.66;;;5.00;100.00
48204;BME280;33994;50.998;5.864;2024-02-26T11:13:44;99643.25;;;4.99;100.00
48204;BME280;33994;50.998;5.864;2024-02-26T11:16:50;99643.31;;;4.96;100.00
48204;BME280;33994;50.998;5.864;2024-02-26T11:19:55;99657.13;;;4.96;100.00
48204;BME280;33994;50.998;5.864;2024-02-26T11:22:59;99659.75;;;4.93;100.00
48204;BME280;33994;50.998;5.864;2024-02-26T11:26:04;99668.34;;;4.95;100.00
48204;BME280;33994;50.998;5.864;2024-02-26T11:29:09;99662.31;;;4.95;100.00
48204;BME280;33994;50.998;5.864;2024-02-26T11:32:15;99659.72;;;4.96;100.00
48204;BME280;33994;50.998;5.864;2024-02-26T11:35:19;99674.34;;;5.00;100.00
48204;BME280;33994;50.998;5.864;2024-02-26T11:38:24;99680.34;;;5.02;100.00
48204;BME280;33994;50.998;5.864;2024-02-26T11:41:28;99679.53;;;5.00;100.00
48204;BME280;33994;50.998;5.864;2024-02-26T11:46:52;99677.78;;;5.01;100.00
48204;BME280;33994;50.998;5.864;2024-02-26T11:49:56;99679.50;;;5.02;100.00
48204;BME280;33994;50.998;5.864;2024-02-26T11:53:24;99678.63;;;5.04;100.00
48204;BME280;33994;50.998;5.864;2024-02-26T11:56:27;99682.91;;;5.05;100.00
48204;BME280;33994;50.998;5.864;2024-02-26T11:59:37;99687.28;;;5.03;100.00
48204;BME280;33994;50.998;5.864;2024-02-26T12:02:44;99695.91;;;5.02;100.00
48204;BME280;33994;50.998;5.864;2024-02-26T12:05:48;99687.34;;;4.97;100.00
48204;BME280;33994;50.998;5.864;2024-02-26T12:08:52;99692.47;;;4.99;100.00
48204;BME280;33994;50.998;5.864;2024-02-26T12:11:55;99707.16;;;5.01;100.00
48204;BME280;33994;50.998;5.864;2024-02-26T12:14:58;99716.63;;;5.05;100.00
48204;BME280;33994;50.998;5.864;2024-02-26T12:18:05;99712.28;;;5.06;100.00
48204;BME280;33994;50.998;5.864;2024-02-26T12:21:10;99726.13;;;5.05;100.00
48204;BME280;33994;50.998;5.864;2024-02-26T12:24:14;99720.97;;;5.02;100.00
48204;BME280;33994;50.998;5.864;2024-02-26T12:27:19;99727.03;;;5.01;100.00
48204;BME280;33994;50.998;5.864;2024-02-26T12:30:23;99733.03;;;5.04;100.00
48204;BME280;33994;50.998;5.864;2024-02-26T12:33:28;99728.75;;;5.03;100.00
48204;BME280;33994;50.998;5.864;2024-02-26T12:36:31;99731.34;;;5.00;100.00
48204;BME280;33994;50.998;5.864;2024-02-26T12:39:35;99731.44;;;4.93;100.00
48204;BME280;33994;50.998;5.864;2024-02-26T12:42:39;99740.06;;;4.92;100.00
48204;BME280;33994;50.998;5.864;2024-02-26T12:45:43;99757.31;;;4.91;100.00
48204;BME280;33994;50.998;5.864;2024-02-26T12:48:48;99748.72;;;4.92;100.00
48204;BME280;33994;50.998;5.864;2024-02-26T12:51:51;99755.59;;;4.93;100.00
48204;BME280;33994;50.998;5.864;2024-02-26T12:54:54;99763.34;;;4.95;100.00
48204;BME280;33994;50.998;5.864;2024-02-26T12:57:57;99776.34;;;4.93;100.00
48204;BME280;33994;50.998;5.864;2024-02-26T13:01:01;99778.94;;;4.93;100.00
48204;BME280;33994;50.998;5.864;2024-02-26T13:04:06;99780.63;;;4.94;100.00
48204;BME280;33994;50.998;5.864;2024-02-26T13:07:09;99791.84;;;4.98;100.00
48204;BME280;33994;50.998;5.864;2024-02-26T13:10:13;99796.19;;;4.96;100.00
48204;BME280;33994;50.998;5.864;2024-02-26T13:13:17;99808.25;;;4.95;100.00
48204;BME280;33994;50.998;5.864;2024-02-26T13:16:23;99808.25;;;4.97;100.00
48204;BME280;33994;50.998;5.864;2024-02-26T13:19:28;99818.69;;;4.92;100.00
48204;BME280;33994;50.998;5.864;2024-02-26T13:22:31;99816.91;;;4.91;100.00
48204;BME280;33994;50.998;5.864;2024-02-26T13:25:35;99818.63;;;4.91;100.00
48204;BME280;33994;50.998;5.864;2024-02-26T13:28:37;99823.84;;;4.86;100.00
48204;BME280;33994;50.998;5.864;2024-02-26T13:31:41;99830.81;;;4.84;100.00
48204;BME280;33994;50.998;5.864;2024-02-26T13:34:45;99829.91;;;4.83;100.00
48204;BME280;33994;50.998;5.864;2024-02-26T13:37:49;99829.03;;;4.86;100.00
48204;BME280;33994;50.998;5.864;2024-02-26T13:40:52;99834.22;;;4.86;100.00
48204;BME280;33994;50.998;5.864;2024-02-26T13:43:55;99834.22;;;4.89;100.00
48204;BME280;33994;50.998;5.864;2024-02-26T13:46:58;99846.31;;;4.87;100.00
48204;BME280;33994;50.998;5.864;2024-02-26T13:50:04;99851.50;;;4.85;100.00
48204;BME280;33994;50.998;5.864;2024-02-26T13:53:07;99851.53;;;4.84;100.00
48204;BME280;33994;50.998;5.864;2024-02-26T13:56:10;99867.06;;;4.84;100.00
48204;BME280;33994;50.998;5.864;2024-02-26T13:59:13;99861.91;;;4.81;100.00
48204;BME280;33994;50.998;5.864;2024-02-26T14:02:17;99865.31;;;4.83;100.00
48204;BME280;33994;50.998;5.864;2024-02-26T14:05:21;99867.06;;;4.84;100.00
48204;BME280;33994;50.998;5.864;2024-02-26T14:08:24;99872.22;;;4.87;100.00
48204;BME280;33994;50.998;5.864;2024-02-26T14:11:27;99872.22;;;4.87;100.00
48204;BME280;33994;50.998;5.864;2024-02-26T14:14:30;99877.44;;;4.84;100.00
48204;BME280;33994;50.998;5.864;2024-02-26T14:17:34;99882.56;;;4.87;100.00
48204;BME280;33994;50.998;5.864;2024-02-26T14:20:38;99884.31;;;4.88;100.00
48204;BME280;33994;50.998;5.864;2024-02-26T14:23:41;99891.22;;;4.86;100.00
48204;BME280;33994;50.998;5.864;2024-02-26T14:26:44;99893.81;;;4.86;100.00
48204;BME280;33994;50.998;5.864;2024-02-26T14:29:48;99899.03;;;4.81;100.00
48204;BME280;33994;50.998;5.864;2024-02-26T14:32:51;99900.78;;;4.78;100.00
48204;BME280;33994;50.998;5.864;2024-02-26T14:35:55;99906.78;;;4.80;100.00
48204;BME280;33994;50.998;5.864;2024-02-26T14:38:59;99909.41;;;4.78;100.00
48204;BME280;33994;50.998;5.864;2024-02-26T14:42:03;99913.72;;;4.78;100.00
48204;BME280;33994;50.998;5.864;2024-02-26T14:45:07;99920.63;;;4.80;100.00
48204;BME280;33994;50.998;5.864;2024-02-26T14:48:10;99926.66;;;4.79;100.00
48204;BME280;33994;50.998;5.864;2024-02-26T14:51:15;99927.53;;;4.80;100.00
48204;BME280;33994;50.998;5.864;2024-02-26T14:54:18;99936.16;;;4.79;100.00
48204;BME280;33994;50.998;5.864;2024-02-26T14:57:21;99956.00;;;4.83;100.00
48204;BME280;33994;50.998;5.864;2024-02-26T15:00:25;99951.72;;;4.82;100.00
48204;BME280;33994;50.998;5.864;2024-02-26T15:03:28;99956.03;;;4.81;100.00
48204;BME280;33994;50.998;5.864;2024-02-26T15:06:32;99954.31;;;4.80;100.00
48204;BME280;33994;50.998;5.864;2024-02-26T15:09:36;99961.19;;;4.84;100.00
48204;BME280;33994;50.998;5.864;2024-02-26T15:12:39;99963.75;;;4.89;100.00
48204;BME280;33994;50.998;5.864;2024-02-26T15:15:43;99969.78;;;4.91;100.00
48204;BME280;33994;50.998;5.864;2024-02-26T15:18:46;99970.66;;;4.87;100.00
48204;BME280;33994;50.998;5.864;2024-02-26T15:21:52;99978.44;;;4.90;100.00
48204;BME280;33994;50.998;5.864;2024-02-26T15:24:55;99981.03;;;4.93;100.00
48204;BME280;33994;50.998;5.864;2024-02-26T15:27:59;99988.81;;;4.93;100.00
48204;BME280;33994;50.998;5.864;2024-02-26T15:31:02;99995.72;;;4.93;100.00
48204;BME280;33994;50.998;5.864;2024-02-26T15:34:05;99992.25;;;4.87;100.00
48204;BME280;33994;50.998;5.864;2024-02-26T15:37:10;100000.03;;;4.89;100.00
48204;BME280;33994;50.998;5.864;2024-02-26T15:40:13;100009.53;;;4.87;100.00
48204;BME280;33994;50.998;5.864;2024-02-26T15:43:16;100018.16;;;4.89;100.00
48204;BME280;33994;50.998;5.864;2024-02-26T15:46:19;100016.41;;;4.91;100.00
48204;BME280;33994;50.998;5.864;2024-02-26T15:49:22;100029.41;;;4.90;100.00
48204;BME280;33994;50.998;5.864;2024-02-26T15:52:27;100038.88;;;4.87;100.00
48204;BME280;33994;50.998;5.864;2024-02-26T15:55:30;100034.59;;;4.86;100.00
48204;BME280;33994;50.998;5.864;2024-02-26T15:58:33;100044.97;;;4.88;100.00
48204;BME280;33994;50.998;5.864;2024-02-26T16:01:38;100036.31;;;4.89;100.00
48204;BME280;33994;50.998;5.864;2024-02-26T16:04:42;100057.03;;;4.89;100.00
48204;BME280;33994;50.998;5.864;2024-02-26T16:07:49;100056.19;;;4.89;100.00
48204;BME280;33994;50.998;5.864;2024-02-26T16:10:54;100057.03;;;4.89;100.00
48204;BME280;33994;50.998;5.864;2024-02-26T16:17:20;100073.44;;;4.91;100.00